createdAt,value
2022-10-18T00:01:01.352Z,8.31
2022-10-18T00:03:46.927Z,8.26
2022-10-18T00:06:32.123Z,8.27
2022-10-18T00:09:17.510Z,8.28
2022-10-18T00:12:03.052Z,8.31
2022-10-18T00:14:50.987Z,8.31
2022-10-18T00:17:37.051Z,8.28
2022-10-18T00:20:22.718Z,8.27
2022-10-18T00:23:07.923Z,8.28
2022-10-18T00:26:20.637Z,8.30
2022-10-18T00:29:07.239Z,8.29
2022-10-18T00:31:52.584Z,8.26
2022-10-18T00:34:39.974Z,8.25
2022-10-18T00:37:25.701Z,8.21
2022-10-18T00:40:11.452Z,8.14
2022-10-18T00:42:57.171Z,8.14
2022-10-18T00:45:42.641Z,8.15
2022-10-18T00:48:28.452Z,8.15
2022-10-18T00:51:15.238Z,8.16
2022-10-18T00:54:00.815Z,8.19
2022-10-18T00:56:46.554Z,8.18
2022-10-18T00:59:32.567Z,8.17
2022-10-18T01:02:18.964Z,8.15
2022-10-18T01:05:05.073Z,8.15
2022-10-18T01:08:17.239Z,8.16
2022-10-18T01:11:05.814Z,8.14
2022-10-18T01:14:17.626Z,8.10
2022-10-18T01:17:37.457Z,8.10
2022-10-18T01:20:55.062Z,8.08
2022-10-18T01:24:01.946Z,8.01
2022-10-18T01:27:24.770Z,8.01
2022-10-18T01:30:35.055Z,7.96
2022-10-18T01:33:55.869Z,7.96
2022-10-18T01:36:44.506Z,7.91
2022-10-18T01:39:35.577Z,7.86
2022-10-18T01:42:21.504Z,7.85
2022-10-18T01:45:09.388Z,7.84
2022-10-18T01:47:55.324Z,7.83
2022-10-18T01:50:40.630Z,7.83
2022-10-18T01:53:29.944Z,7.83
2022-10-18T01:56:21.332Z,7.82
2022-10-18T01:59:32.889Z,7.80
2022-10-18T02:02:21.507Z,7.80
2022-10-18T02:05:17.148Z,7.79
2022-10-18T02:08:23.297Z,7.78
2022-10-18T02:11:12.940Z,7.77
2022-10-18T02:14:05.847Z,7.77
2022-10-18T02:16:55.108Z,7.74
2022-10-18T02:20:01.607Z,7.72
2022-10-18T02:22:50.809Z,7.69
2022-10-18T02:25:36.876Z,7.66
2022-10-18T02:28:22.519Z,7.63
2022-10-18T02:31:14.198Z,7.62
2022-10-18T02:34:07.258Z,7.58
2022-10-18T02:36:55.426Z,7.55
2022-10-18T02:39:46.494Z,7.53
2022-10-18T02:42:39.416Z,7.52
2022-10-18T02:45:26.412Z,7.47
2022-10-18T02:48:11.786Z,7.40
2022-10-18T02:50:57.249Z,7.38
2022-10-18T02:53:42.883Z,7.36
2022-10-18T02:56:28.926Z,7.34
2022-10-18T02:59:14.327Z,7.30
2022-10-18T03:01:59.466Z,7.26
2022-10-18T03:04:45.051Z,7.26
2022-10-18T03:07:30.717Z,7.20
2022-10-18T03:10:16.614Z,7.20
2022-10-18T03:13:01.990Z,7.22
2022-10-18T03:15:48.442Z,7.22
2022-10-18T03:18:33.789Z,7.21
2022-10-18T03:21:19.149Z,7.18
2022-10-18T03:24:04.818Z,7.14
2022-10-18T03:26:50.180Z,7.09
2022-10-18T03:29:35.579Z,7.09
2022-10-18T03:32:21.123Z,7.10
2022-10-18T03:35:07.878Z,7.06
2022-10-18T03:37:53.771Z,7.06
2022-10-18T03:40:39.194Z,7.06
2022-10-18T03:43:25.069Z,7.03
2022-10-18T03:46:10.610Z,7.02
2022-10-18T03:48:55.906Z,6.95
2022-10-18T03:51:41.533Z,6.88
2022-10-18T03:54:26.942Z,6.86
2022-10-18T03:57:12.434Z,6.84
2022-10-18T03:59:58.102Z,6.80
2022-10-18T04:02:43.437Z,6.75
2022-10-18T04:05:30.979Z,6.71
2022-10-18T04:08:16.874Z,6.64
2022-10-18T04:11:08.462Z,6.62
2022-10-18T04:13:53.754Z,6.60
2022-10-18T04:16:39.376Z,6.59
2022-10-18T04:19:24.775Z,6.55
2022-10-18T04:22:12.290Z,6.52
2022-10-18T04:24:57.779Z,6.51
2022-10-18T04:27:43.478Z,6.51
2022-10-18T04:30:28.693Z,6.49
2022-10-18T04:33:14.151Z,6.50
2022-10-18T04:35:59.621Z,6.48
2022-10-18T04:38:45.082Z,6.43
2022-10-18T04:41:30.639Z,6.41
2022-10-18T04:44:16.040Z,6.38
2022-10-18T04:47:01.861Z,6.36
2022-10-18T04:49:47.374Z,6.33
2022-10-18T04:52:33.059Z,6.29
2022-10-18T04:55:18.652Z,6.24
2022-10-18T04:58:04.196Z,6.22
2022-10-18T05:00:50.319Z,6.21
2022-10-18T05:03:35.894Z,6.20
2022-10-18T05:06:22.268Z,6.18
2022-10-18T05:09:07.708Z,6.16
2022-10-18T05:11:53.232Z,6.12
2022-10-18T05:14:38.524Z,6.05
2022-10-18T05:17:24.007Z,5.98
2022-10-18T05:20:10.095Z,5.93
2022-10-18T05:22:55.475Z,5.92
2022-10-18T05:25:42.403Z,5.91
2022-10-18T05:28:39.699Z,5.89
2022-10-18T05:31:26.362Z,5.89
2022-10-18T05:34:11.927Z,5.87
2022-10-18T05:36:57.498Z,5.89
2022-10-18T05:39:42.697Z,5.90
2022-10-18T05:42:28.381Z,5.93
2022-10-18T05:45:13.645Z,5.93
2022-10-18T05:47:58.928Z,5.93
2022-10-18T05:50:44.475Z,5.92
2022-10-18T05:53:36.815Z,5.92
2022-10-18T05:56:22.853Z,5.91
2022-10-18T05:59:12.382Z,5.90
2022-10-18T06:01:57.682Z,5.88
2022-10-18T06:04:43.291Z,5.90
2022-10-18T06:07:28.826Z,5.94
2022-10-18T06:10:14.369Z,5.92
2022-10-18T06:12:59.810Z,5.90
2022-10-18T06:15:45.383Z,5.88
2022-10-18T06:18:30.599Z,5.85
2022-10-18T06:21:16.617Z,5.86
2022-10-18T06:24:01.921Z,5.89
2022-10-18T06:26:47.522Z,5.91
2022-10-18T06:29:32.741Z,5.89
2022-10-18T06:32:18.726Z,5.92
2022-10-18T06:35:04.413Z,5.98
2022-10-18T06:37:49.726Z,6.04
2022-10-18T06:40:38.216Z,6.10
2022-10-18T06:43:24.276Z,6.15
2022-10-18T06:46:09.918Z,6.20
2022-10-18T06:48:55.770Z,6.25
2022-10-18T06:51:42.892Z,6.29
2022-10-18T06:54:28.305Z,6.35
2022-10-18T06:57:13.827Z,6.43
2022-10-18T06:59:59.297Z,6.50
2022-10-18T07:02:44.820Z,6.58
2022-10-18T07:08:21.946Z,6.72
2022-10-18T07:11:08.994Z,6.78
2022-10-18T07:14:00.919Z,6.84
2022-10-18T07:16:46.438Z,6.92
2022-10-18T07:19:31.904Z,7.01
2022-10-18T07:22:17.421Z,7.13
2022-10-18T07:25:03.063Z,7.21
2022-10-18T07:27:48.256Z,7.29
2022-10-18T07:30:34.255Z,7.41
2022-10-18T07:33:20.673Z,7.53
2022-10-18T07:36:08.631Z,7.61
2022-10-18T07:38:54.058Z,7.74
2022-10-18T07:41:39.829Z,7.87
2022-10-18T07:44:26.065Z,7.99
2022-10-18T07:47:11.869Z,8.13
2022-10-18T07:49:57.017Z,8.25
2022-10-18T07:52:42.496Z,8.38
2022-10-18T07:55:27.951Z,8.50
2022-10-18T07:58:13.582Z,8.65
2022-10-18T08:01:03.636Z,8.79
2022-10-18T08:03:49.646Z,8.93
2022-10-18T08:06:35.251Z,9.08
2022-10-18T08:09:20.671Z,9.25
2022-10-18T08:12:06.229Z,9.39
2022-10-18T08:14:51.715Z,9.56
2022-10-18T08:17:37.373Z,9.74
2022-10-18T08:20:31.374Z,9.87
2022-10-18T08:23:17.046Z,10.04
2022-10-18T08:26:06.908Z,10.21
2022-10-18T08:28:54.291Z,10.37
2022-10-18T08:31:44.075Z,10.54
2022-10-18T08:34:29.449Z,10.67
2022-10-18T08:37:14.721Z,10.79
2022-10-18T08:40:00.275Z,10.89
2022-10-18T08:43:22.632Z,11.03
2022-10-18T08:46:12.638Z,11.14
2022-10-18T08:49:00.006Z,11.22
2022-10-18T08:51:50.582Z,11.31
2022-10-18T08:54:41.818Z,11.40
2022-10-18T08:57:27.602Z,11.48
2022-10-18T09:00:21.869Z,11.56
2022-10-18T09:03:29.888Z,11.61
2022-10-18T09:06:46.533Z,11.71
2022-10-18T09:09:46.830Z,11.79
2022-10-18T09:12:38.509Z,11.87
2022-10-18T09:15:30.017Z,11.95
2022-10-18T09:18:51.640Z,12.03
2022-10-18T09:21:53.687Z,12.12
2022-10-18T09:24:40.386Z,12.19
2022-10-18T09:27:54.464Z,12.24
2022-10-18T09:31:04.143Z,12.32
2022-10-18T09:34:02.006Z,12.38
2022-10-18T09:36:51.190Z,12.44
2022-10-18T09:39:39.264Z,12.52
2022-10-18T09:42:39.538Z,12.60
2022-10-18T09:45:33.961Z,12.71
2022-10-18T09:48:34.737Z,12.78
2022-10-18T09:51:28.772Z,12.84
2022-10-18T09:54:17.490Z,12.91
2022-10-18T09:57:08.273Z,12.99
2022-10-18T09:59:53.759Z,13.08
2022-10-18T10:02:39.142Z,13.15
2022-10-18T10:05:24.510Z,13.22
2022-10-18T10:08:10.457Z,13.32
2022-10-18T10:10:56.599Z,13.41
2022-10-18T10:13:42.216Z,13.48
2022-10-18T10:16:28.131Z,13.56
2022-10-18T10:19:18.888Z,13.66
2022-10-18T10:22:11.364Z,13.77
2022-10-18T10:24:57.199Z,13.83
2022-10-18T10:27:46.686Z,13.90
2022-10-18T10:30:38.521Z,14.00
2022-10-18T10:33:36.436Z,14.10
2022-10-18T10:36:21.938Z,14.19
2022-10-18T10:39:19.173Z,14.29
2022-10-18T10:42:06.867Z,14.40
2022-10-18T10:44:55.670Z,14.47
2022-10-18T10:47:41.122Z,14.58
2022-10-18T10:50:29.054Z,14.67
2022-10-18T10:53:50.213Z,14.77
2022-10-18T10:56:50.131Z,14.86
2022-10-18T10:59:47.220Z,14.98
2022-10-18T11:02:35.619Z,15.10
2022-10-18T11:05:29.538Z,15.19
2022-10-18T11:08:23.913Z,15.31
2022-10-18T11:11:22.883Z,15.43
2022-10-18T11:14:27.323Z,15.56
2022-10-18T11:17:23.625Z,15.66
2022-10-18T11:20:37.990Z,15.73
2022-10-18T11:23:30.841Z,15.82
2022-10-18T11:26:59.549Z,15.90
2022-10-18T11:30:29.539Z,16.20
2022-10-18T11:34:10.393Z,16.76
2022-10-18T11:37:34.667Z,17.14
2022-10-18T11:40:36.289Z,17.55
2022-10-18T11:44:01.317Z,17.83
2022-10-18T11:47:21.206Z,18.14
2022-10-18T11:50:09.801Z,18.43
2022-10-18T11:53:07.253Z,18.67
2022-10-18T11:56:04.749Z,18.81
2022-10-18T11:58:59.623Z,19.01
2022-10-18T12:02:14.872Z,19.23
2022-10-18T12:08:27.026Z,19.43
2022-10-18T12:11:21.161Z,19.52
2022-10-18T12:14:29.126Z,19.54
2022-10-18T12:17:43.952Z,19.60
2022-10-18T12:20:40.078Z,19.64
2022-10-18T12:23:42.995Z,19.68
2022-10-18T12:26:29.763Z,19.77
2022-10-18T12:29:28.081Z,19.87
2022-10-18T12:32:19.011Z,20.01
2022-10-18T12:35:14.711Z,20.09
2022-10-18T12:38:14.833Z,20.14
2022-10-18T12:41:01.322Z,20.20
2022-10-18T12:43:57.070Z,20.22
2022-10-18T12:46:52.331Z,20.23
2022-10-18T12:49:41.482Z,20.28
2022-10-18T12:52:33.996Z,20.35
2022-10-18T12:55:19.826Z,20.40
2022-10-18T12:58:14.866Z,20.42
2022-10-18T13:01:03.244Z,20.43
2022-10-18T13:03:56.912Z,20.46
2022-10-18T13:07:00.794Z,20.45
2022-10-18T13:10:12.477Z,20.44
2022-10-18T13:13:39.137Z,20.47
2022-10-18T13:16:49.101Z,20.42
2022-10-18T13:20:24.128Z,20.31
2022-10-18T13:23:39.537Z,20.14
2022-10-18T13:26:42.440Z,20.04
2022-10-18T13:29:56.543Z,19.95
2022-10-18T13:32:53.963Z,19.88
2022-10-18T13:36:22.498Z,19.80
2022-10-18T13:39:20.108Z,19.69
2022-10-18T13:42:20.337Z,19.59
2022-10-18T13:45:33.676Z,19.48
2022-10-18T13:48:31.335Z,19.40
2022-10-18T13:51:46.111Z,19.33
2022-10-18T13:54:53.239Z,19.22
2022-10-18T13:57:47.332Z,19.15
2022-10-18T14:01:11.480Z,19.05
2022-10-18T14:04:15.990Z,19.03
2022-10-18T14:07:05.044Z,18.94
2022-10-18T14:09:57.584Z,18.91
2022-10-18T14:12:54.169Z,18.85
2022-10-18T14:15:41.951Z,18.78
2022-10-18T14:18:31.975Z,18.72
2022-10-18T14:21:30.278Z,18.65
2022-10-18T14:24:25.369Z,18.56
2022-10-18T14:27:25.175Z,18.48
2022-10-18T14:30:15.907Z,18.46
2022-10-18T14:33:02.357Z,18.40
2022-10-18T14:35:59.689Z,18.35
2022-10-18T14:39:06.033Z,18.30
2022-10-18T14:41:56.293Z,18.30
2022-10-18T14:44:42.183Z,18.23
2022-10-18T14:47:30.345Z,18.17
2022-10-18T14:50:30.535Z,18.04
2022-10-18T14:53:25.272Z,17.94
2022-10-18T14:56:22.226Z,17.79
2022-10-18T14:59:33.548Z,17.63
2022-10-18T15:02:24.080Z,17.47
2022-10-18T15:05:20.895Z,17.30
2022-10-18T15:08:06.074Z,17.13
2022-10-18T15:10:52.355Z,16.98
2022-10-18T15:13:46.818Z,16.84
2022-10-18T15:16:33.033Z,16.72
2022-10-18T15:19:18.440Z,16.62
2022-10-18T15:22:30.717Z,16.53
2022-10-18T15:25:32.135Z,16.41
2022-10-18T15:28:31.278Z,16.31
2022-10-18T15:31:35.017Z,16.21
2022-10-18T15:34:23.776Z,16.14
2022-10-18T15:37:37.616Z,16.03
2022-10-18T15:40:22.804Z,15.95
2022-10-18T15:43:24.431Z,15.86
2022-10-18T15:46:30.456Z,15.79
2022-10-18T15:49:25.045Z,15.76
2022-10-18T15:52:19.506Z,15.73
2022-10-18T15:55:29.134Z,15.70
2022-10-18T15:58:17.779Z,15.67
2022-10-18T16:01:04.540Z,15.63
2022-10-18T16:03:51.812Z,15.59
2022-10-18T16:06:38.627Z,15.58
2022-10-18T16:09:26.699Z,15.56
2022-10-18T16:12:12.412Z,15.57
2022-10-18T16:14:57.972Z,15.60
2022-10-18T16:17:43.466Z,15.63
2022-10-18T16:20:28.832Z,15.64
2022-10-18T16:23:17.555Z,15.65
2022-10-18T16:26:03.459Z,15.66
2022-10-18T16:28:49.528Z,15.67
2022-10-18T16:31:35.309Z,15.67
2022-10-18T16:34:20.623Z,15.67
2022-10-18T16:37:06.065Z,15.65
2022-10-18T16:39:51.554Z,15.64
2022-10-18T16:42:37.105Z,15.65
2022-10-18T16:45:22.667Z,15.65
2022-10-18T16:48:13.175Z,15.65
2022-10-18T16:50:59.067Z,15.64
2022-10-18T16:53:44.855Z,15.63
2022-10-18T16:56:32.214Z,15.60
2022-10-18T16:59:29.088Z,15.58
2022-10-18T17:02:14.735Z,15.55
2022-10-18T17:05:00.177Z,15.48
2022-10-18T17:07:46.875Z,15.49
2022-10-18T17:10:32.558Z,15.47
2022-10-18T17:13:17.524Z,15.44
2022-10-18T17:16:03.973Z,15.42
2022-10-18T17:18:49.365Z,15.38
2022-10-18T17:21:35.194Z,15.38
2022-10-18T17:24:20.722Z,15.35
2022-10-18T17:27:06.339Z,15.34
2022-10-18T17:29:51.671Z,15.32
2022-10-18T17:32:37.400Z,15.30
2022-10-18T17:35:22.906Z,15.28
2022-10-18T17:38:08.261Z,15.22
2022-10-18T17:40:54.515Z,15.17
2022-10-18T17:46:31.775Z,15.16
2022-10-18T17:49:18.267Z,15.14
2022-10-18T17:52:06.897Z,15.11
2022-10-18T17:54:52.477Z,15.11
2022-10-18T17:57:39.548Z,15.08
2022-10-18T18:00:25.045Z,15.04
2022-10-18T18:03:10.974Z,15.04
2022-10-18T18:05:56.327Z,15.00
2022-10-18T18:08:41.857Z,14.96
2022-10-18T18:11:28.576Z,14.93
2022-10-18T18:14:16.184Z,14.86
2022-10-18T18:17:03.369Z,14.81
2022-10-18T18:19:49.103Z,14.76
2022-10-18T18:22:36.868Z,14.72
2022-10-18T18:25:24.579Z,14.71
2022-10-18T18:28:13.103Z,14.69
2022-10-18T18:30:58.800Z,14.67
2022-10-18T18:33:44.897Z,14.64
2022-10-18T18:36:32.690Z,14.60
2022-10-18T18:39:26.758Z,14.59
2022-10-18T18:42:12.833Z,14.53
2022-10-18T18:45:01.206Z,14.52
2022-10-18T18:47:47.071Z,14.46
2022-10-18T18:50:33.212Z,14.45
2022-10-18T18:53:19.819Z,14.45
2022-10-18T18:56:08.493Z,14.44
2022-10-18T18:58:54.526Z,14.42
2022-10-18T19:01:41.056Z,14.41
2022-10-18T19:04:26.811Z,14.39
2022-10-18T19:07:13.502Z,14.38
2022-10-18T19:09:59.682Z,14.37
2022-10-18T19:12:45.548Z,14.35
2022-10-18T19:15:31.197Z,14.33
2022-10-18T19:18:23.114Z,14.32
2022-10-18T19:21:09.386Z,14.29
2022-10-18T19:23:56.569Z,14.27
2022-10-18T19:26:49.338Z,14.26
2022-10-18T19:29:36.847Z,14.25
2022-10-18T19:32:22.589Z,14.22
2022-10-18T19:35:09.879Z,14.19
2022-10-18T19:37:55.463Z,14.13
2022-10-18T19:40:40.826Z,14.11
2022-10-18T19:43:26.377Z,14.11
2022-10-18T19:46:12.106Z,14.09
2022-10-18T19:48:58.616Z,14.09
2022-10-18T19:51:44.602Z,14.10
2022-10-18T19:54:29.831Z,14.10
2022-10-18T19:57:15.372Z,14.09
2022-10-18T20:00:01.018Z,14.09
2022-10-18T20:02:57.270Z,14.09
2022-10-18T20:05:42.657Z,14.08
2022-10-18T20:08:30.565Z,14.04
2022-10-18T20:11:19.025Z,14.02
2022-10-18T20:14:09.615Z,13.96
2022-10-18T20:16:55.027Z,13.91
2022-10-18T20:19:40.563Z,13.89
2022-10-18T20:22:26.041Z,13.87
2022-10-18T20:25:11.566Z,13.83
2022-10-18T20:27:57.117Z,13.79
2022-10-18T20:30:42.418Z,13.76
2022-10-18T20:33:28.275Z,13.76
2022-10-18T20:36:16.331Z,13.77
2022-10-18T20:39:02.316Z,13.78
2022-10-18T20:41:47.868Z,13.79
2022-10-18T20:44:34.088Z,13.79
2022-10-18T20:47:19.652Z,13.79
2022-10-18T20:50:05.556Z,13.79
2022-10-18T20:52:51.445Z,13.79
2022-10-18T20:55:38.840Z,13.78
2022-10-18T20:58:24.078Z,13.78
2022-10-18T21:01:20.871Z,13.77
2022-10-18T21:04:08.730Z,13.77
2022-10-18T21:06:54.342Z,13.76
2022-10-18T21:09:39.760Z,13.76
2022-10-18T21:12:27.536Z,13.74
2022-10-18T21:15:15.045Z,13.71
2022-10-18T21:18:00.469Z,13.68
2022-10-18T21:20:45.861Z,13.63
2022-10-18T21:23:31.319Z,13.63
2022-10-18T21:26:19.629Z,13.61
2022-10-18T21:29:05.640Z,13.61
2022-10-18T21:31:55.131Z,13.62
2022-10-18T21:34:40.349Z,13.62
2022-10-18T21:37:25.826Z,13.59
2022-10-18T21:40:11.491Z,13.61
2022-10-18T21:42:57.251Z,13.59
2022-10-18T21:45:42.530Z,13.57
2022-10-18T21:48:28.524Z,13.56
2022-10-18T21:51:16.320Z,13.56
2022-10-18T21:54:02.118Z,13.54
2022-10-18T21:56:47.266Z,13.51
2022-10-18T21:59:32.618Z,13.47
2022-10-18T22:02:18.022Z,13.45
2022-10-18T22:05:07.028Z,13.43
2022-10-18T22:07:55.247Z,13.39
2022-10-18T22:10:40.699Z,13.36
2022-10-18T22:13:26.820Z,13.35
2022-10-18T22:16:14.602Z,13.32
2022-10-18T22:19:01.995Z,13.32
2022-10-18T22:21:48.021Z,13.24
2022-10-18T22:24:33.182Z,13.19
2022-10-18T22:27:18.691Z,13.16
2022-10-18T22:30:04.739Z,13.15
2022-10-18T22:32:50.063Z,13.14
2022-10-18T22:35:35.561Z,13.08
2022-10-18T22:38:21.136Z,13.02
2022-10-18T22:41:07.505Z,12.93
2022-10-18T22:43:53.615Z,12.90
2022-10-18T22:46:40.389Z,12.88
2022-10-18T22:49:26.203Z,12.87
2022-10-18T22:52:11.426Z,12.87
2022-10-18T22:54:56.901Z,12.85
2022-10-18T22:57:42.305Z,12.84
2022-10-18T23:00:27.719Z,12.83
2022-10-18T23:03:16.266Z,12.82
2022-10-18T23:06:02.627Z,12.79
2022-10-18T23:08:48.310Z,12.77
2022-10-18T23:11:35.706Z,12.76
2022-10-18T23:14:21.585Z,12.72
2022-10-18T23:17:07.349Z,12.72
2022-10-18T23:19:52.864Z,12.71
2022-10-18T23:22:38.330Z,12.67
2022-10-18T23:25:24.041Z,12.66
2022-10-18T23:28:09.511Z,12.63
2022-10-18T23:30:55.270Z,12.52
2022-10-18T23:33:40.986Z,12.49
2022-10-18T23:36:27.108Z,12.48
2022-10-18T23:39:12.623Z,12.47
2022-10-18T23:41:58.128Z,12.43
2022-10-18T23:44:43.827Z,12.38
2022-10-18T23:47:29.245Z,12.36
2022-10-18T23:50:14.954Z,12.36
2022-10-18T23:53:00.481Z,12.37
2022-10-18T23:56:06.831Z,12.38
2022-10-18T23:58:52.727Z,12.35
